createdAt,value
2023-01-10T00:01:47.486Z,13.90
2023-01-10T00:04:35.666Z,12.95
2023-01-10T00:07:15.559Z,16.73
2023-01-10T00:10:02.502Z,18.58
2023-01-10T00:13:01.501Z,12.75
2023-01-10T00:15:48.522Z,22.90
2023-01-10T00:18:28.668Z,15.45
2023-01-10T00:21:16.495Z,18.42
2023-01-10T00:23:59.483Z,18.08
2023-01-10T00:26:47.435Z,9.65
2023-01-10T00:29:35.463Z,16.08
2023-01-10T00:32:15.378Z,17.25
2023-01-10T00:35:07.258Z,20.08
2023-01-10T00:37:47.417Z,14.80
2023-01-10T00:40:34.575Z,16.48
2023-01-10T00:43:34.432Z,18.88
2023-01-10T00:46:21.547Z,14.98
2023-01-10T00:49:01.464Z,15.32
2023-01-10T00:51:48.653Z,16.88
2023-01-10T00:54:28.393Z,16.52
2023-01-10T00:57:15.514Z,20.00
2023-01-10T00:59:55.385Z,17.10
2023-01-10T01:02:42.552Z,15.75
2023-01-10T01:05:22.332Z,16.90
2023-01-10T01:08:11.007Z,18.88
2023-01-10T01:10:50.496Z,17.90
2023-01-10T01:13:37.529Z,19.05
2023-01-10T01:16:17.425Z,17.92
2023-01-10T01:19:04.430Z,21.15
2023-01-10T01:21:44.312Z,16.67
2023-01-10T01:24:31.534Z,15.40
2023-01-10T01:27:25.265Z,23.55
2023-01-10T01:30:12.724Z,21.42
2023-01-10T01:32:52.370Z,28.95
2023-01-10T01:35:39.537Z,22.13
2023-01-10T01:38:19.482Z,19.65
2023-01-10T01:41:26.404Z,16.98
2023-01-10T01:44:11.269Z,19.45
2023-01-10T01:47:07.567Z,23.35
2023-01-10T01:49:49.258Z,21.75
2023-01-10T01:52:40.416Z,26.00
2023-01-10T01:55:20.434Z,21.42
2023-01-10T01:58:08.401Z,22.70
2023-01-10T02:00:48.247Z,30.38
2023-01-10T02:03:35.542Z,21.80
2023-01-10T02:06:15.241Z,26.25
2023-01-10T02:09:22.306Z,21.95
2023-01-10T02:12:02.329Z,18.63
2023-01-10T02:14:50.440Z,19.58
2023-01-10T02:17:30.490Z,24.55
2023-01-10T02:20:18.508Z,29.13
2023-01-10T02:22:58.223Z,15.82
2023-01-10T02:25:45.634Z,25.00
2023-01-10T02:28:50.257Z,27.05
2023-01-10T02:31:39.580Z,23.95
2023-01-10T02:34:41.442Z,22.77
2023-01-10T02:37:26.704Z,15.63
2023-01-10T02:40:29.457Z,21.45
2023-01-10T02:43:22.492Z,22.50
2023-01-10T02:46:22.249Z,16.55
2023-01-10T02:49:02.482Z,17.83
2023-01-10T02:51:49.210Z,20.27
2023-01-10T02:54:34.476Z,16.90
2023-01-10T02:57:27.174Z,14.95
2023-01-10T03:00:22.476Z,26.75
2023-01-10T03:03:21.288Z,22.02
2023-01-10T03:06:13.316Z,18.70
2023-01-10T03:09:06.171Z,26.00
2023-01-10T03:11:47.330Z,17.50
2023-01-10T03:14:35.198Z,15.65
2023-01-10T03:17:17.290Z,20.40
2023-01-10T03:20:07.269Z,22.27
2023-01-10T03:22:48.250Z,15.15
2023-01-10T03:25:39.281Z,18.10
2023-01-10T03:28:35.252Z,25.67
2023-01-10T03:31:25.188Z,21.98
2023-01-10T03:34:05.275Z,20.08
2023-01-10T03:36:52.194Z,22.23
2023-01-10T03:39:46.422Z,18.60
2023-01-10T03:43:10.180Z,27.10
2023-01-10T03:45:54.193Z,18.85
2023-01-10T03:48:43.139Z,22.25
2023-01-10T03:51:24.227Z,26.05
2023-01-10T03:54:11.105Z,18.25
2023-01-10T03:56:54.166Z,22.05
2023-01-10T03:59:41.226Z,19.80
2023-01-10T04:02:21.178Z,15.75
2023-01-10T04:05:08.128Z,20.77
2023-01-10T04:07:49.242Z,22.30
2023-01-10T04:10:36.202Z,20.23
2023-01-10T04:13:16.431Z,18.73
2023-01-10T04:16:03.074Z,19.25
2023-01-10T04:18:43.284Z,20.05
2023-01-10T04:21:30.136Z,19.30
2023-01-10T04:24:10.327Z,16.15
2023-01-10T04:26:57.059Z,20.27
2023-01-10T04:29:44.321Z,21.73
2023-01-10T04:32:24.127Z,24.42
2023-01-10T04:35:11.301Z,19.40
2023-01-10T04:37:51.116Z,20.98
2023-01-10T04:40:38.491Z,18.33
2023-01-10T04:43:18.080Z,19.55
2023-01-10T04:46:05.335Z,15.13
2023-01-10T04:48:45.063Z,20.48
2023-01-10T04:51:32.277Z,20.13
2023-01-10T04:54:12.111Z,20.02
2023-01-10T04:56:59.242Z,21.50
2023-01-10T04:59:39.069Z,12.98
2023-01-10T05:02:26.214Z,24.73
2023-01-10T05:05:06.084Z,18.23
2023-01-10T05:07:53.364Z,14.40
2023-01-10T05:10:33.044Z,16.52
2023-01-10T05:13:20.284Z,19.70
2023-01-10T05:16:03.072Z,12.60
2023-01-10T05:18:50.864Z,19.95
2023-01-10T05:21:31.020Z,14.00
2023-01-10T05:24:18.128Z,12.48
2023-01-10T05:26:57.954Z,22.73
2023-01-10T05:29:51.981Z,16.52
2023-01-10T05:32:39.104Z,20.25
2023-01-10T05:35:19.258Z,21.20
2023-01-10T05:38:06.032Z,20.35
2023-01-10T05:40:46.155Z,13.95
2023-01-10T05:43:33.129Z,19.23
2023-01-10T05:46:13.136Z,17.85
2023-01-10T05:48:59.948Z,17.48
2023-01-10T05:51:40.252Z,17.23
2023-01-10T05:54:27.095Z,15.68
2023-01-10T05:57:07.179Z,20.02
2023-01-10T05:59:54.030Z,15.02
2023-01-10T06:02:34.187Z,16.10
2023-01-10T06:05:20.938Z,15.57
2023-01-10T06:08:01.194Z,13.25
2023-01-10T06:10:47.944Z,16.02
2023-01-10T06:13:28.210Z,13.80
2023-01-10T06:16:15.013Z,16.58
2023-01-10T06:18:55.072Z,22.73
2023-01-10T06:21:41.977Z,17.52
2023-01-10T06:24:22.309Z,16.95
2023-01-10T06:27:08.999Z,15.80
2023-01-10T06:29:57.024Z,19.33
2023-01-10T06:32:37.049Z,20.33
2023-01-10T06:35:24.104Z,21.08
2023-01-10T06:38:03.922Z,16.50
2023-01-10T06:40:51.103Z,15.23
2023-01-10T06:43:30.908Z,15.57
2023-01-10T06:46:18.412Z,15.40
2023-01-10T06:48:57.908Z,20.23
2023-01-10T06:51:45.162Z,25.33
2023-01-10T06:54:24.947Z,21.15
2023-01-10T06:57:11.912Z,22.23
2023-01-10T06:59:51.875Z,17.77
2023-01-10T07:02:39.176Z,29.83
2023-01-10T07:05:20.856Z,20.35
2023-01-10T07:08:07.961Z,16.33
2023-01-10T07:10:47.954Z,18.35
2023-01-10T07:13:35.087Z,12.43
2023-01-10T07:16:17.136Z,14.40
2023-01-10T07:19:03.989Z,22.15
2023-01-10T07:21:43.904Z,13.45
2023-01-10T07:24:30.952Z,13.60
2023-01-10T07:27:10.896Z,15.00
2023-01-10T07:29:58.020Z,21.30
2023-01-10T07:32:37.908Z,18.35
2023-01-10T07:35:24.967Z,17.90
2023-01-10T07:38:05.896Z,26.73
2023-01-10T07:40:53.136Z,15.23
2023-01-10T07:43:32.844Z,15.80
2023-01-10T07:46:20.419Z,19.77
2023-01-10T07:48:59.790Z,19.08
2023-01-10T07:51:46.932Z,15.60
2023-01-10T07:54:26.881Z,15.02
2023-01-10T07:57:14.526Z,23.50
2023-01-10T07:59:54.917Z,15.48
2023-01-10T08:02:42.112Z,17.40
2023-01-10T08:05:21.919Z,19.95
2023-01-10T08:08:10.877Z,15.35
2023-01-10T08:10:50.929Z,22.17
2023-01-10T08:13:37.874Z,14.88
2023-01-10T08:16:18.006Z,18.23
2023-01-10T08:19:05.200Z,20.92
2023-01-10T08:21:44.917Z,11.55
2023-01-10T08:24:31.998Z,16.60
2023-01-10T08:27:12.878Z,22.20
2023-01-10T08:30:00.000Z,18.65
2023-01-10T08:32:39.837Z,11.40
2023-01-10T08:35:26.872Z,15.48
2023-01-10T08:38:06.847Z,17.42
2023-01-10T08:40:53.981Z,18.20
2023-01-10T08:43:33.790Z,17.38
2023-01-10T08:46:21.327Z,20.65
2023-01-10T08:49:00.809Z,14.00
2023-01-10T08:51:47.976Z,17.08
2023-01-10T08:54:27.760Z,18.27
2023-01-10T08:57:15.033Z,14.52
2023-01-10T08:59:54.788Z,20.35
2023-01-10T09:02:41.932Z,22.02
2023-01-10T09:05:27.394Z,23.25
2023-01-10T09:08:15.059Z,13.43
2023-01-10T09:10:54.778Z,17.55
2023-01-10T09:13:42.559Z,22.02
2023-01-10T09:16:23.815Z,16.25
2023-01-10T09:19:10.964Z,18.77
2023-01-10T09:21:50.788Z,16.90
2023-01-10T09:24:39.324Z,15.65
2023-01-10T09:27:19.065Z,20.10
2023-01-10T09:30:06.256Z,14.02
2023-01-10T09:32:45.716Z,15.43
2023-01-10T09:35:32.789Z,21.80
2023-01-10T09:38:13.780Z,18.42
2023-01-10T09:41:11.720Z,16.70
2023-01-10T09:44:07.769Z,17.65
2023-01-10T09:46:58.214Z,18.45
2023-01-10T09:49:53.713Z,17.50
2023-01-10T09:52:36.734Z,16.17
2023-01-10T09:55:25.788Z,17.92
2023-01-10T09:58:06.887Z,13.35
2023-01-10T10:00:57.892Z,16.23
2023-01-10T10:03:47.876Z,22.63
2023-01-10T10:06:34.746Z,17.27
2023-01-10T10:09:17.796Z,25.23
2023-01-10T10:12:12.694Z,11.52
2023-01-10T10:14:56.752Z,14.52
2023-01-10T10:17:48.659Z,15.15
2023-01-10T10:20:41.801Z,13.68
2023-01-10T10:23:28.759Z,17.92
2023-01-10T10:26:15.796Z,19.65
2023-01-10T10:29:18.820Z,12.90
2023-01-10T10:32:18.837Z,15.65
2023-01-10T10:35:07.852Z,18.13
2023-01-10T10:37:58.802Z,20.50
2023-01-10T10:40:44.768Z,11.13
2023-01-10T10:43:32.885Z,16.48
2023-01-10T10:46:19.702Z,13.18
2023-01-10T10:49:07.772Z,18.35
2023-01-10T10:52:00.601Z,12.93
2023-01-10T10:54:48.789Z,12.15
2023-01-10T10:57:30.904Z,18.80
2023-01-10T11:00:22.350Z,15.30
2023-01-10T11:03:30.567Z,14.85
2023-01-10T11:06:19.385Z,17.92
2023-01-10T11:09:02.542Z,20.20
2023-01-10T11:11:54.510Z,18.77
2023-01-10T11:14:54.730Z,11.82
2023-01-10T11:17:41.875Z,13.63
2023-01-10T11:20:22.658Z,17.63
2023-01-10T11:23:09.709Z,14.02
2023-01-10T11:25:53.576Z,16.70
2023-01-10T11:28:47.707Z,21.20
2023-01-10T11:31:35.587Z,21.83
2023-01-10T11:34:25.698Z,15.73
2023-01-10T11:37:24.651Z,16.45
2023-01-10T11:40:24.324Z,19.52
2023-01-10T11:43:29.574Z,17.25
2023-01-10T11:46:11.734Z,20.42
2023-01-10T11:49:08.368Z,16.88
2023-01-10T11:51:58.838Z,16.48
2023-01-10T11:54:47.546Z,15.27
2023-01-10T11:57:32.615Z,16.33
2023-01-10T12:00:19.557Z,14.48
2023-01-10T12:02:59.573Z,15.40
2023-01-10T12:05:46.522Z,17.42
2023-01-10T12:08:33.669Z,15.65
2023-01-10T12:11:20.578Z,15.10
2023-01-10T12:14:04.995Z,21.45
2023-01-10T12:16:51.548Z,18.88
2023-01-10T12:19:31.739Z,17.30
2023-01-10T12:22:20.559Z,16.77
2023-01-10T12:25:00.715Z,15.77
2023-01-10T12:27:49.446Z,16.80
2023-01-10T12:30:36.737Z,24.00
2023-01-10T12:33:21.517Z,13.90
2023-01-10T12:36:11.723Z,11.20
2023-01-10T12:39:13.527Z,18.48
2023-01-10T12:42:30.223Z,13.68
2023-01-10T12:45:22.487Z,12.88
2023-01-10T12:48:11.688Z,14.93
2023-01-10T12:50:55.562Z,15.38
2023-01-10T12:53:46.726Z,15.75
2023-01-10T12:56:26.456Z,14.07
2023-01-10T12:59:39.243Z,18.27
2023-01-10T13:02:30.575Z,16.35
2023-01-10T13:05:22.716Z,18.10
2023-01-10T13:08:06.446Z,11.60
2023-01-10T13:10:55.682Z,17.08
2023-01-10T13:13:42.419Z,11.93
2023-01-10T13:17:04.829Z,13.10
2023-01-10T13:19:44.404Z,14.52
2023-01-10T13:22:31.542Z,16.70
2023-01-10T13:25:14.766Z,17.88
2023-01-10T13:28:10.368Z,12.95
2023-01-10T13:31:00.501Z,7.70
2023-01-10T13:33:57.597Z,17.10
2023-01-10T13:36:45.409Z,11.18
2023-01-10T13:39:57.967Z,15.43
2023-01-10T13:43:02.512Z,14.55
2023-01-10T13:45:43.460Z,12.13
2023-01-10T13:48:32.429Z,10.60
2023-01-10T13:51:13.699Z,12.30
2023-01-10T13:54:03.440Z,11.50
2023-01-10T13:56:44.585Z,8.32
2023-01-10T13:59:52.417Z,6.68
2023-01-10T14:02:33.787Z,12.63
2023-01-10T14:05:25.497Z,8.77
2023-01-10T14:08:05.563Z,12.88
2023-01-10T14:10:52.495Z,8.23
2023-01-10T14:13:32.581Z,9.73
2023-01-10T14:16:37.418Z,8.65
2023-01-10T14:19:36.516Z,4.68
2023-01-10T14:22:31.345Z,8.80
2023-01-10T14:25:13.614Z,8.45
2023-01-10T14:28:01.397Z,5.07
2023-01-10T14:30:48.619Z,9.75
2023-01-10T14:33:28.390Z,11.10
2023-01-10T14:36:27.669Z,6.82
2023-01-10T14:39:08.345Z,8.15
2023-01-10T14:41:59.975Z,7.80
2023-01-10T14:45:11.326Z,7.68
2023-01-10T14:47:58.623Z,9.43
2023-01-10T14:50:39.388Z,8.48
2023-01-10T14:53:36.596Z,5.55
2023-01-10T14:56:26.436Z,9.70
2023-01-10T14:59:23.466Z,4.97
2023-01-10T15:02:04.359Z,7.35
2023-01-10T15:05:01.620Z,8.73
2023-01-10T15:07:41.593Z,7.22
2023-01-10T15:10:37.425Z,10.27
2023-01-10T15:13:20.357Z,4.40
2023-01-10T15:16:08.103Z,3.78
2023-01-10T15:18:50.588Z,5.55
2023-01-10T15:21:37.449Z,4.65
2023-01-10T15:24:29.492Z,10.75
2023-01-10T15:27:21.575Z,5.85
2023-01-10T15:30:08.327Z,5.10
2023-01-10T15:32:48.656Z,14.68
2023-01-10T15:35:37.137Z,4.22
2023-01-10T15:38:22.421Z,6.72
2023-01-10T15:41:10.453Z,7.60
2023-01-10T15:43:52.173Z,5.28
2023-01-10T15:46:41.328Z,6.35
2023-01-10T15:49:30.569Z,7.47
2023-01-10T15:52:27.269Z,6.03
2023-01-10T15:55:07.493Z,5.32
2023-01-10T15:57:58.386Z,9.02
2023-01-10T16:00:38.406Z,5.95
2023-01-10T16:03:40.297Z,5.22
2023-01-10T16:06:30.568Z,8.60
2023-01-10T16:09:25.183Z,6.18
2023-01-10T16:12:24.210Z,5.95
2023-01-10T16:15:20.247Z,6.25
2023-01-10T16:18:00.473Z,9.68
2023-01-10T16:20:48.211Z,8.77
2023-01-10T16:23:30.830Z,6.28
2023-01-10T16:26:17.251Z,7.82
2023-01-10T16:29:19.345Z,8.77
2023-01-10T16:32:06.168Z,8.68
2023-01-10T16:34:46.375Z,11.25
2023-01-10T16:37:33.179Z,10.77
2023-01-10T16:40:26.752Z,8.48
2023-01-10T16:43:25.290Z,8.93
2023-01-10T16:46:05.458Z,9.90
2023-01-10T16:48:54.124Z,6.90
2023-01-10T16:51:35.415Z,10.23
2023-01-10T16:54:23.472Z,8.95
2023-01-10T16:57:03.323Z,17.15
2023-01-10T16:59:50.211Z,7.22
2023-01-10T17:02:30.366Z,10.40
2023-01-10T17:05:18.228Z,10.13
2023-01-10T17:07:58.289Z,10.13
2023-01-10T17:10:45.123Z,10.80
2023-01-10T17:13:28.191Z,11.07
2023-01-10T17:16:15.694Z,12.20
2023-01-10T17:18:56.281Z,11.30
2023-01-10T17:21:43.164Z,9.50
2023-01-10T17:24:23.411Z,9.82
2023-01-10T17:27:10.045Z,10.30
2023-01-10T17:30:04.134Z,12.50
2023-01-10T17:32:51.246Z,10.00
2023-01-10T17:35:32.531Z,11.73
2023-01-10T17:38:20.127Z,8.30
2023-01-10T17:41:03.216Z,9.70
2023-01-10T17:43:50.270Z,10.50
2023-01-10T17:46:30.136Z,9.73
2023-01-10T17:49:24.123Z,13.05
2023-01-10T17:52:11.271Z,9.55
2023-01-10T17:54:51.574Z,14.70
2023-01-10T17:57:39.413Z,10.50
2023-01-10T18:00:19.071Z,10.90
2023-01-10T18:03:06.259Z,8.85
2023-01-10T18:05:46.053Z,12.05
2023-01-10T18:08:33.234Z,10.23
2023-01-10T18:11:13.072Z,10.32
2023-01-10T18:14:00.138Z,9.25
2023-01-10T18:16:41.130Z,11.35
2023-01-10T18:19:29.916Z,10.15
2023-01-10T18:22:34.077Z,10.30
2023-01-10T18:25:21.400Z,15.40
2023-01-10T18:28:02.062Z,9.60
2023-01-10T18:30:56.142Z,9.63
2023-01-10T18:33:42.987Z,7.63
2023-01-10T18:36:24.521Z,9.65
2023-01-10T18:39:11.216Z,12.18
2023-01-10T18:41:51.205Z,11.02
2023-01-10T18:44:38.003Z,13.02
2023-01-10T18:47:18.106Z,8.05
2023-01-10T18:50:04.967Z,10.00
2023-01-10T18:52:45.092Z,10.20
2023-01-10T18:55:32.163Z,11.65
2023-01-10T18:58:12.275Z,10.63
2023-01-10T19:00:59.019Z,9.43
2023-01-10T19:03:39.226Z,9.02
2023-01-10T19:06:27.385Z,12.00
2023-01-10T19:09:07.160Z,11.25
2023-01-10T19:11:54.163Z,12.55
2023-01-10T19:14:34.428Z,9.80
2023-01-10T19:17:21.021Z,9.90
2023-01-10T19:20:01.039Z,11.25
2023-01-10T19:22:47.990Z,8.00
2023-01-10T19:26:01.596Z,11.05
2023-01-10T19:28:59.676Z,10.95
2023-01-10T19:32:07.013Z,8.98
2023-01-10T19:42:03.050Z,10.02
2023-01-10T19:44:50.352Z,13.13
2023-01-10T19:47:55.644Z,10.82
2023-01-10T19:50:35.131Z,10.93
2023-01-10T19:53:22.070Z,10.85
2023-01-10T19:56:09.833Z,12.30
2023-01-10T19:58:58.025Z,10.52
2023-01-10T20:16:51.425Z,13.63
2023-01-10T20:19:20.558Z,10.65
2023-01-10T20:22:09.065Z,8.40
2023-01-10T20:24:39.489Z,9.00
2023-01-10T20:27:19.114Z,9.27
2023-01-10T20:30:09.684Z,12.70
2023-01-10T20:32:43.779Z,10.00
2023-01-10T20:35:12.124Z,13.20
2023-01-10T20:37:41.496Z,10.45
2023-01-10T20:40:11.012Z,11.50
2023-01-10T20:42:49.568Z,8.77
2023-01-10T20:45:16.454Z,10.50
2023-01-10T20:47:48.954Z,7.88
2023-01-10T20:50:19.479Z,10.52
2023-01-10T20:52:46.278Z,10.23
2023-01-10T20:55:21.044Z,11.50
2023-01-10T20:58:01.067Z,7.43
2023-01-10T21:00:30.175Z,9.43
2023-01-10T21:03:03.885Z,9.98
2023-01-10T21:05:36.128Z,10.07
2023-01-10T21:08:03.448Z,10.43
2023-01-10T21:10:30.008Z,9.32
2023-01-10T21:12:56.945Z,8.68
2023-01-10T21:15:23.719Z,10.10
2023-01-10T21:17:50.492Z,8.15
2023-01-10T21:20:17.095Z,8.18
2023-01-10T21:22:44.554Z,11.63
2023-01-10T21:25:11.524Z,9.20
2023-01-10T21:27:52.056Z,7.95
2023-01-10T21:30:21.929Z,5.93
2023-01-10T21:32:54.077Z,8.88
2023-01-10T21:35:21.018Z,7.50
2023-01-10T21:37:49.652Z,9.30
2023-01-10T21:40:16.410Z,7.65
2023-01-10T21:42:44.973Z,6.95
2023-01-10T21:45:15.545Z,15.02
2023-01-10T21:47:42.423Z,7.40
2023-01-10T21:50:10.013Z,11.00
2023-01-10T21:52:37.022Z,6.30
2023-01-10T21:55:04.142Z,8.50
2023-01-10T21:57:31.034Z,7.80
2023-01-10T21:59:57.667Z,5.95
2023-01-10T22:02:27.403Z,7.45
2023-01-10T22:04:56.880Z,9.77
2023-01-10T22:07:26.432Z,7.25
2023-01-10T22:09:53.111Z,5.88
2023-01-10T22:12:20.783Z,5.75
2023-01-10T22:14:47.640Z,9.25
2023-01-10T22:17:14.814Z,7.18
2023-01-10T22:19:41.712Z,6.88
2023-01-10T22:22:08.798Z,9.25
2023-01-10T22:24:35.606Z,9.45
2023-01-10T22:27:02.630Z,8.75
2023-01-10T22:29:29.321Z,7.07
2023-01-10T22:31:56.196Z,7.18
2023-01-10T22:34:23.148Z,7.95
2023-01-10T22:36:49.765Z,7.10
2023-01-10T22:39:16.721Z,8.40
2023-01-10T22:41:43.300Z,8.57
2023-01-10T22:44:17.048Z,7.28
2023-01-10T22:46:43.707Z,11.32
2023-01-10T22:49:10.224Z,8.38
2023-01-10T22:51:37.646Z,11.48
2023-01-10T22:54:04.654Z,9.25
2023-01-10T22:56:31.455Z,7.50
2023-01-10T22:58:58.322Z,6.85
2023-01-10T23:01:25.439Z,6.50
2023-01-10T23:03:52.009Z,9.98
2023-01-10T23:06:18.896Z,9.23
2023-01-10T23:08:45.561Z,9.05
2023-01-10T23:11:14.224Z,6.97
2023-01-10T23:13:40.822Z,12.45
2023-01-10T23:16:15.677Z,9.90
2023-01-10T23:21:09.423Z,10.30
2023-01-10T23:23:36.308Z,13.07
2023-01-10T23:26:03.939Z,6.55
2023-01-10T23:28:31.598Z,9.75
2023-01-10T23:30:58.265Z,12.18
2023-01-10T23:33:25.331Z,8.85
2023-01-10T23:35:52.168Z,8.20
2023-01-10T23:38:18.829Z,12.23
2023-01-10T23:40:45.576Z,7.97
2023-01-10T23:43:12.249Z,12.93
2023-01-10T23:45:38.909Z,10.38
2023-01-10T23:48:08.415Z,7.13
2023-01-10T23:50:35.052Z,8.75
2023-01-10T23:53:01.844Z,9.20
2023-01-10T23:55:29.574Z,6.80
2023-01-10T23:57:56.769Z,11.13
